createdAt,value
2018-02-16T00:01:10.532Z,13.10
2018-02-16T00:03:38.296Z,12.37
2018-02-16T00:06:05.984Z,13.18
2018-02-16T00:08:33.870Z,13.80
2018-02-16T00:11:01.570Z,13.50
2018-02-16T00:13:29.269Z,13.15
2018-02-16T00:15:56.903Z,14.05
2018-02-16T00:18:24.623Z,12.68
2018-02-16T00:20:52.350Z,13.10
2018-02-16T00:23:20.020Z,12.07
2018-02-16T00:25:50.803Z,12.25
2018-02-16T00:28:18.514Z,11.50
2018-02-16T00:30:46.434Z,12.60
2018-02-16T00:33:14.118Z,12.80
2018-02-16T00:35:44.112Z,12.07
2018-02-16T00:38:11.843Z,13.90
2018-02-16T00:40:39.511Z,12.55
2018-02-16T00:43:07.155Z,11.38
2018-02-16T00:45:34.873Z,12.43
2018-02-16T00:48:02.746Z,13.73
2018-02-16T00:50:30.402Z,11.75
2018-02-16T00:52:58.095Z,12.18
2018-02-16T00:55:25.820Z,13.98
2018-02-16T00:57:53.507Z,12.45
2018-02-16T01:00:21.168Z,13.70
2018-02-16T01:02:48.927Z,12.95
2018-02-16T01:05:16.599Z,11.80
2018-02-16T01:07:44.261Z,13.02
2018-02-16T01:10:12.395Z,13.82
2018-02-16T01:12:40.032Z,11.70
2018-02-16T01:15:07.680Z,10.75
2018-02-16T01:17:35.331Z,14.13
2018-02-16T01:20:03.020Z,14.75
2018-02-16T01:22:30.683Z,12.30
2018-02-16T01:24:58.395Z,13.95
2018-02-16T01:27:26.106Z,13.40
2018-02-16T01:29:53.809Z,12.43
2018-02-16T01:32:21.483Z,12.88
2018-02-16T01:34:49.145Z,13.10
2018-02-16T01:37:16.816Z,14.30
2018-02-16T01:39:44.530Z,13.47
2018-02-16T01:42:12.148Z,11.50
2018-02-16T01:44:40.540Z,12.32
2018-02-16T01:47:08.224Z,12.35
2018-02-16T01:52:41.626Z,13.75
2018-02-16T01:55:09.243Z,12.40
2018-02-16T01:57:36.869Z,12.45
2018-02-16T02:00:04.535Z,11.98
2018-02-16T02:02:32.142Z,14.48
2018-02-16T02:04:59.793Z,12.10
2018-02-16T02:07:27.369Z,12.68
2018-02-16T02:09:55.402Z,13.77
2018-02-16T02:12:23.020Z,13.05
2018-02-16T02:14:50.716Z,12.20
2018-02-16T02:17:18.363Z,13.02
2018-02-16T02:19:46.186Z,11.60
2018-02-16T02:22:13.820Z,13.18
2018-02-16T02:24:41.480Z,12.23
2018-02-16T02:27:09.065Z,12.10
2018-02-16T02:29:36.697Z,12.68
2018-02-16T02:32:04.315Z,13.02
2018-02-16T02:34:31.939Z,12.98
2018-02-16T02:36:59.568Z,12.23
2018-02-16T02:39:27.151Z,12.27
2018-02-16T02:41:54.816Z,11.70
2018-02-16T02:44:22.673Z,14.80
2018-02-16T02:46:50.277Z,13.77
2018-02-16T02:49:17.892Z,11.77
2018-02-16T02:51:45.499Z,13.27
2018-02-16T02:54:13.076Z,13.55
2018-02-16T02:56:40.776Z,11.75
2018-02-16T02:59:08.403Z,12.60
2018-02-16T03:01:36.014Z,13.75
2018-02-16T03:04:03.637Z,12.40
2018-02-16T03:06:33.256Z,11.52
2018-02-16T03:09:00.927Z,11.50
2018-02-16T03:11:28.505Z,12.37
2018-02-16T03:13:56.122Z,11.48
2018-02-16T03:16:23.703Z,11.27
2018-02-16T03:18:51.305Z,12.27
2018-02-16T03:21:18.893Z,11.93
2018-02-16T03:23:46.509Z,10.85
2018-02-16T03:26:14.096Z,10.63
2018-02-16T03:28:42.004Z,11.40
2018-02-16T03:31:09.580Z,11.32
2018-02-16T03:33:37.177Z,11.10
2018-02-16T03:36:04.814Z,11.57
2018-02-16T03:38:32.476Z,10.38
2018-02-16T03:41:00.114Z,10.18
2018-02-16T03:43:27.788Z,10.82
2018-02-16T03:45:55.366Z,10.27
2018-02-16T03:48:22.971Z,11.77
2018-02-16T03:50:50.630Z,10.05
2018-02-16T03:53:18.220Z,10.70
2018-02-16T03:55:46.101Z,11.23
2018-02-16T03:58:13.720Z,11.50
2018-02-16T04:00:41.330Z,9.52
2018-02-16T04:03:08.950Z,9.95
2018-02-16T04:05:36.568Z,10.57
2018-02-16T04:08:04.192Z,10.90
2018-02-16T04:10:32.079Z,10.95
2018-02-16T04:12:59.698Z,9.70
2018-02-16T04:15:27.328Z,10.88
2018-02-16T04:17:54.965Z,9.60
2018-02-16T04:20:22.557Z,10.35
2018-02-16T04:22:50.164Z,11.65
2018-02-16T04:25:18.011Z,11.15
2018-02-16T04:27:45.622Z,11.25
2018-02-16T04:30:13.259Z,11.52
2018-02-16T04:32:41.096Z,11.12
2018-02-16T04:35:08.721Z,11.45
2018-02-16T04:37:36.668Z,10.15
2018-02-16T04:40:04.265Z,10.82
2018-02-16T04:42:31.920Z,11.98
2018-02-16T04:44:59.516Z,10.00
2018-02-16T04:47:27.163Z,11.25
2018-02-16T04:49:55.082Z,9.88
2018-02-16T04:52:22.732Z,10.73
2018-02-16T04:54:50.311Z,9.73
2018-02-16T04:57:18.274Z,9.80
2018-02-16T04:59:45.913Z,10.63
2018-02-16T05:02:13.509Z,10.18
2018-02-16T05:04:41.082Z,10.63
2018-02-16T05:07:08.701Z,10.23
2018-02-16T05:09:36.339Z,10.02
2018-02-16T05:12:04.240Z,9.70
2018-02-16T05:14:31.870Z,10.00
2018-02-16T05:16:59.466Z,10.88
2018-02-16T05:19:27.112Z,10.18
2018-02-16T05:21:54.708Z,10.98
2018-02-16T05:24:22.305Z,8.80
2018-02-16T05:26:49.925Z,11.05
2018-02-16T05:29:17.520Z,8.65
2018-02-16T05:31:45.142Z,10.32
2018-02-16T05:34:13.007Z,10.52
2018-02-16T05:36:40.635Z,9.27
2018-02-16T05:39:08.223Z,9.57
2018-02-16T05:41:35.831Z,9.70
2018-02-16T05:44:03.409Z,10.70
2018-02-16T05:46:31.102Z,10.27
2018-02-16T05:48:58.707Z,9.10
2018-02-16T05:51:26.355Z,8.55
2018-02-16T05:53:53.965Z,8.80
2018-02-16T05:56:21.559Z,9.95
2018-02-16T05:58:49.173Z,7.93
2018-02-16T06:01:17.615Z,9.30
2018-02-16T06:03:45.479Z,8.63
2018-02-16T06:06:13.069Z,10.13
2018-02-16T06:08:40.996Z,9.07
2018-02-16T06:11:08.601Z,9.10
2018-02-16T06:13:36.191Z,8.65
2018-02-16T06:16:03.811Z,9.68
2018-02-16T06:18:31.424Z,9.23
2018-02-16T06:20:59.050Z,9.13
2018-02-16T06:23:26.966Z,7.60
2018-02-16T06:25:54.550Z,9.60
2018-02-16T06:28:22.242Z,9.63
2018-02-16T06:30:49.844Z,8.77
2018-02-16T06:33:17.417Z,9.43
2018-02-16T06:35:45.136Z,9.32
2018-02-16T06:38:12.816Z,8.88
2018-02-16T06:40:40.380Z,9.68
2018-02-16T06:43:08.015Z,9.55
2018-02-16T06:45:46.071Z,8.70
2018-02-16T06:48:13.726Z,8.50
2018-02-16T06:50:41.339Z,8.85
2018-02-16T06:53:09.255Z,8.93
2018-02-16T06:55:36.891Z,8.35
2018-02-16T06:58:04.463Z,8.30
2018-02-16T07:00:32.060Z,8.52
2018-02-16T07:02:59.682Z,9.60
2018-02-16T07:05:27.279Z,8.10
2018-02-16T07:07:54.973Z,8.82
2018-02-16T07:10:22.728Z,8.75
2018-02-16T07:12:50.318Z,7.80
2018-02-16T07:15:18.321Z,8.13
2018-02-16T07:17:45.931Z,7.57
2018-02-16T07:20:13.628Z,9.07
2018-02-16T07:22:41.622Z,6.97
2018-02-16T07:25:09.252Z,8.20
2018-02-16T07:27:36.935Z,7.93
2018-02-16T07:30:04.567Z,7.65
2018-02-16T07:32:32.178Z,8.75
2018-02-16T07:34:59.903Z,7.55
2018-02-16T07:37:27.500Z,8.38
2018-02-16T07:39:55.194Z,8.43
2018-02-16T07:42:22.783Z,7.25
2018-02-16T07:44:50.482Z,8.30
2018-02-16T07:47:18.141Z,8.40
2018-02-16T07:49:45.771Z,6.85
2018-02-16T07:52:13.386Z,7.97
2018-02-16T07:54:41.031Z,9.95
2018-02-16T07:57:09.105Z,9.13
2018-02-16T07:59:36.782Z,9.25
2018-02-16T08:02:04.730Z,8.02
2018-02-16T08:04:32.345Z,9.77
2018-02-16T08:07:00.000Z,8.70
2018-02-16T08:09:27.657Z,8.98
2018-02-16T08:11:55.297Z,8.02
2018-02-16T08:14:22.895Z,8.13
2018-02-16T08:16:50.516Z,8.35
2018-02-16T08:19:18.142Z,7.93
2018-02-16T08:21:45.743Z,7.45
2018-02-16T08:24:13.685Z,6.50
2018-02-16T08:26:41.517Z,7.05
2018-02-16T08:29:09.204Z,6.10
2018-02-16T08:31:36.821Z,7.00
2018-02-16T08:34:04.654Z,23.40
2018-02-16T08:36:32.314Z,7.18
2018-02-16T08:38:59.908Z,14.57
2018-02-16T08:41:27.516Z,10.70
2018-02-16T08:43:55.216Z,7.70
2018-02-16T08:46:22.843Z,8.43
2018-02-16T08:48:50.515Z,5.85
2018-02-16T08:51:18.096Z,8.10
2018-02-16T08:53:45.690Z,7.80
2018-02-16T08:56:13.339Z,5.90
2018-02-16T08:58:40.937Z,6.47
2018-02-16T09:01:08.568Z,7.60
2018-02-16T09:03:36.371Z,6.07
2018-02-16T09:06:03.941Z,7.10
2018-02-16T09:08:31.573Z,5.05
2018-02-16T09:10:59.160Z,5.80
2018-02-16T09:13:26.768Z,5.87
2018-02-16T09:15:54.699Z,5.13
2018-02-16T09:18:22.367Z,5.70
2018-02-16T09:20:49.997Z,5.13
2018-02-16T09:23:17.575Z,4.53
2018-02-16T09:25:45.373Z,5.47
2018-02-16T09:28:13.323Z,4.80
2018-02-16T09:30:40.924Z,5.17
2018-02-16T09:33:08.507Z,4.63
2018-02-16T09:35:49.824Z,4.80
2018-02-16T09:38:17.397Z,4.30
2018-02-16T09:40:44.983Z,4.87
2018-02-16T09:43:12.643Z,5.17
2018-02-16T09:45:40.266Z,5.03
2018-02-16T09:48:07.912Z,4.80
2018-02-16T09:50:35.764Z,4.30
2018-02-16T09:53:03.403Z,5.30
2018-02-16T09:55:31.124Z,5.20
2018-02-16T09:57:59.329Z,4.43
2018-02-16T10:00:26.996Z,5.73
2018-02-16T10:02:54.933Z,4.93
2018-02-16T10:05:22.610Z,4.30
2018-02-16T10:07:50.269Z,3.17
2018-02-16T10:10:17.942Z,4.53
2018-02-16T10:12:46.008Z,4.77
2018-02-16T10:15:13.718Z,4.63
2018-02-16T10:17:41.622Z,4.63
2018-02-16T10:20:09.336Z,3.50
2018-02-16T10:22:37.009Z,4.50
2018-02-16T10:25:05.111Z,5.20
2018-02-16T10:27:32.843Z,3.83
2018-02-16T10:30:00.544Z,4.20
2018-02-16T10:32:28.376Z,3.87
2018-02-16T10:34:56.622Z,4.07
2018-02-16T10:37:24.589Z,3.47
2018-02-16T10:39:52.376Z,2.87
2018-02-16T10:42:20.158Z,2.93
2018-02-16T10:44:47.841Z,3.10
2018-02-16T10:47:15.548Z,3.93
2018-02-16T10:49:43.303Z,3.17
2018-02-16T10:52:11.037Z,3.87
2018-02-16T10:54:38.718Z,2.53
2018-02-16T10:57:06.424Z,2.27
2018-02-16T10:59:34.101Z,3.83
2018-02-16T11:02:07.452Z,2.87
2018-02-16T11:04:40.615Z,2.50
2018-02-16T11:07:14.132Z,2.80
2018-02-16T11:09:41.844Z,2.37
2018-02-16T11:12:09.643Z,2.90
2018-02-16T11:14:42.981Z,3.03
2018-02-16T11:17:10.706Z,3.90
2018-02-16T11:19:38.456Z,3.77
2018-02-16T11:22:06.182Z,3.00
2018-02-16T11:24:33.838Z,2.97
2018-02-16T11:27:01.583Z,2.73
2018-02-16T11:29:29.259Z,2.90
2018-02-16T11:31:57.010Z,2.73
2018-02-16T11:34:24.965Z,3.87
2018-02-16T11:36:52.719Z,3.67
2018-02-16T11:39:20.507Z,2.97
2018-02-16T11:41:48.240Z,3.37
2018-02-16T11:44:15.999Z,2.43
2018-02-16T11:46:43.651Z,2.40
2018-02-16T11:49:11.361Z,2.73
2018-02-16T11:51:39.103Z,2.73
2018-02-16T11:54:07.084Z,3.90
2018-02-16T11:56:34.761Z,2.70
2018-02-16T11:59:02.434Z,2.43
2018-02-16T12:01:30.176Z,3.07
2018-02-16T12:03:57.925Z,3.10
2018-02-16T12:06:25.657Z,3.13
2018-02-16T12:08:53.379Z,3.20
2018-02-16T12:11:21.156Z,2.50
2018-02-16T12:13:48.924Z,2.90
2018-02-16T12:16:16.620Z,2.20
2018-02-16T12:18:44.415Z,2.07
2018-02-16T12:21:12.160Z,2.90
2018-02-16T12:23:39.893Z,2.27
2018-02-16T12:26:07.566Z,2.33
2018-02-16T12:28:35.338Z,1.97
2018-02-16T12:31:03.101Z,2.67
2018-02-16T12:33:30.772Z,1.83
2018-02-16T12:35:58.516Z,2.00
2018-02-16T12:38:26.211Z,2.60
2018-02-16T12:40:53.916Z,2.40
2018-02-16T12:43:21.662Z,3.03
2018-02-16T12:45:49.313Z,2.50
2018-02-16T12:48:17.073Z,2.00
2018-02-16T12:50:44.800Z,3.23
2018-02-16T12:53:13.849Z,2.63
2018-02-16T12:55:41.705Z,2.10
2018-02-16T12:58:09.377Z,3.17
2018-02-16T13:00:41.070Z,1.83
2018-02-16T13:03:08.905Z,2.27
2018-02-16T13:05:36.655Z,2.20
2018-02-16T13:10:43.338Z,2.03
2018-02-16T13:13:11.076Z,1.63
2018-02-16T13:15:38.786Z,1.90
2018-02-16T13:18:06.584Z,2.40
2018-02-16T13:20:34.874Z,2.10
2018-02-16T13:23:03.802Z,1.60
2018-02-16T13:25:33.156Z,1.70
2018-02-16T13:28:05.696Z,2.47
2018-02-16T13:30:33.453Z,2.53
2018-02-16T13:33:02.318Z,2.50
2018-02-16T13:35:30.079Z,2.57
2018-02-16T13:37:57.806Z,2.10
2018-02-16T13:40:25.585Z,2.87
2018-02-16T13:42:54.445Z,2.77
2018-02-16T13:45:23.636Z,2.50
2018-02-16T13:47:51.474Z,2.00
2018-02-16T13:50:25.009Z,2.20
2018-02-16T13:52:52.922Z,2.90
2018-02-16T13:55:22.765Z,3.10
2018-02-16T13:58:00.358Z,2.40
2018-02-16T14:00:32.466Z,1.73
2018-02-16T14:03:02.096Z,2.43
2018-02-16T14:05:33.725Z,2.60
2018-02-16T14:08:02.503Z,2.80
2018-02-16T14:10:30.223Z,2.40
2018-02-16T14:13:05.959Z,1.90
2018-02-16T14:15:34.588Z,2.23
2018-02-16T14:18:06.310Z,3.00
2018-02-16T14:20:39.140Z,2.13
2018-02-16T14:23:07.245Z,2.00
2018-02-16T14:25:36.249Z,2.13
2018-02-16T14:28:04.063Z,3.03
2018-02-16T14:30:33.017Z,2.10
2018-02-16T14:33:00.830Z,1.83
2018-02-16T14:35:30.404Z,2.73
2018-02-16T14:38:02.506Z,3.87
2018-02-16T14:40:30.579Z,2.77
2018-02-16T14:42:58.651Z,2.40
2018-02-16T14:45:30.123Z,2.63
2018-02-16T14:47:58.897Z,2.77
2018-02-16T14:50:26.646Z,3.90
2018-02-16T14:52:55.593Z,1.90
2018-02-16T14:55:23.335Z,2.20
2018-02-16T14:57:51.129Z,1.93
2018-02-16T15:00:20.053Z,2.80
2018-02-16T15:02:47.830Z,4.00
2018-02-16T15:05:15.580Z,2.60
2018-02-16T15:07:43.675Z,2.40
2018-02-16T15:10:11.452Z,2.03
2018-02-16T15:12:39.622Z,2.40
2018-02-16T15:15:08.412Z,2.57
2018-02-16T15:17:38.013Z,3.87
2018-02-16T15:20:05.712Z,2.53
2018-02-16T15:22:33.520Z,2.10
2018-02-16T15:25:01.263Z,3.00
2018-02-16T15:27:28.974Z,2.50
2018-02-16T15:29:56.657Z,1.97
2018-02-16T15:32:24.393Z,1.23
2018-02-16T15:34:52.113Z,1.63
2018-02-16T15:37:19.833Z,2.30
2018-02-16T15:39:47.659Z,2.67
2018-02-16T15:42:15.305Z,2.30
2018-02-16T15:44:42.982Z,2.00
2018-02-16T15:47:10.718Z,2.90
2018-02-16T15:49:38.325Z,1.60
2018-02-16T15:52:06.035Z,2.57
2018-02-16T15:54:33.883Z,1.87
2018-02-16T15:57:01.508Z,1.83
2018-02-16T15:59:29.161Z,1.30
2018-02-16T16:01:56.833Z,2.13
2018-02-16T16:04:24.510Z,2.57
2018-02-16T16:06:52.447Z,1.60
2018-02-16T16:09:20.209Z,1.60
2018-02-16T16:11:47.910Z,1.80
2018-02-16T16:14:15.696Z,3.00
2018-02-16T16:16:43.855Z,1.80
2018-02-16T16:19:11.505Z,2.30
2018-02-16T16:21:39.220Z,1.67
2018-02-16T16:24:06.955Z,2.33
2018-02-16T16:26:34.670Z,2.90
2018-02-16T16:29:02.390Z,2.00
2018-02-16T16:31:30.292Z,1.93
2018-02-16T16:33:58.052Z,2.50
2018-02-16T16:36:25.868Z,2.63
2018-02-16T16:38:53.601Z,2.60
2018-02-16T16:41:21.257Z,2.40
2018-02-16T16:43:48.913Z,1.97
2018-02-16T16:46:16.629Z,2.43
2018-02-16T16:48:44.571Z,2.73
2018-02-16T16:51:12.255Z,2.67
2018-02-16T16:53:39.972Z,2.20
2018-02-16T16:56:07.761Z,2.17
2018-02-16T16:58:35.853Z,3.10
2018-02-16T17:01:03.537Z,2.30
2018-02-16T17:03:31.306Z,1.97
2018-02-16T17:05:59.027Z,2.50
2018-02-16T17:08:26.794Z,1.80
2018-02-16T17:10:54.568Z,2.50
2018-02-16T17:13:22.196Z,2.07
2018-02-16T17:15:49.926Z,2.47
2018-02-16T17:18:17.692Z,2.20
2018-02-16T17:20:45.432Z,2.50
2018-02-16T17:23:13.061Z,2.50
2018-02-16T17:28:41.043Z,2.23
2018-02-16T17:31:08.820Z,2.17
2018-02-16T17:33:36.553Z,4.00
2018-02-16T17:36:04.546Z,2.70
2018-02-16T17:38:32.131Z,2.03
2018-02-16T17:40:59.807Z,2.37
2018-02-16T17:43:27.432Z,2.30
2018-02-16T17:45:55.138Z,2.70
2018-02-16T17:48:23.075Z,2.30
2018-02-16T17:50:50.658Z,3.00
2018-02-16T17:53:18.305Z,2.20
2018-02-16T17:55:45.950Z,2.67
2018-02-16T17:58:13.695Z,2.10
2018-02-16T18:00:41.473Z,2.33
2018-02-16T18:03:09.112Z,3.30
2018-02-16T18:05:36.796Z,2.30
2018-02-16T18:08:04.529Z,2.00
2018-02-16T18:10:32.221Z,3.00
2018-02-16T18:12:59.953Z,2.73
2018-02-16T18:15:29.666Z,2.90
2018-02-16T18:17:57.347Z,2.70
2018-02-16T18:20:25.235Z,2.40
2018-02-16T18:22:53.003Z,2.80
2018-02-16T18:25:20.698Z,3.47
2018-02-16T18:27:48.428Z,3.10
2018-02-16T18:30:16.166Z,2.80
2018-02-16T18:32:46.537Z,2.57
2018-02-16T18:35:14.193Z,3.57
2018-02-16T18:37:41.915Z,3.13
2018-02-16T18:40:09.938Z,2.43
2018-02-16T18:42:37.647Z,2.50
2018-02-16T18:45:05.318Z,2.83
2018-02-16T18:47:33.063Z,3.30
2018-02-16T18:50:00.805Z,3.00
2018-02-16T18:52:28.494Z,4.27
2018-02-16T18:54:56.095Z,4.10
2018-02-16T18:57:23.735Z,6.50
2018-02-16T18:59:52.495Z,4.30
2018-02-16T19:02:20.418Z,7.03
2018-02-16T19:04:48.019Z,6.83
2018-02-16T19:07:15.636Z,7.97
2018-02-16T19:09:43.268Z,5.47
2018-02-16T19:12:10.851Z,4.07
2018-02-16T19:14:38.485Z,4.87
2018-02-16T19:17:06.057Z,3.13
2018-02-16T19:19:33.666Z,3.53
2018-02-16T19:22:01.324Z,3.40
2018-02-16T19:24:28.985Z,4.33
2018-02-16T19:26:56.564Z,3.63
2018-02-16T19:29:24.173Z,4.17
2018-02-16T19:31:51.788Z,4.07
2018-02-16T19:34:19.505Z,4.70
2018-02-16T19:36:47.074Z,3.73
2018-02-16T19:39:14.697Z,3.00
2018-02-16T19:41:42.607Z,4.13
2018-02-16T19:44:10.292Z,3.30
2018-02-16T19:46:37.937Z,3.70
2018-02-16T19:49:05.553Z,4.00
2018-02-16T19:51:33.233Z,4.07
2018-02-16T19:54:00.935Z,4.95
2018-02-16T19:56:28.624Z,3.08
2018-02-16T19:58:56.340Z,4.43
2018-02-16T20:01:24.042Z,3.12
2018-02-16T20:03:51.696Z,3.67
2018-02-16T20:06:19.667Z,5.53
2018-02-16T20:08:47.347Z,3.85
2018-02-16T20:11:15.032Z,3.70
2018-02-16T20:13:42.670Z,4.25
2018-02-16T20:16:10.307Z,3.80
2018-02-16T20:18:37.974Z,4.85
2018-02-16T20:21:05.633Z,4.45
2018-02-16T20:23:33.575Z,3.80
2018-02-16T20:26:01.250Z,5.70
2018-02-16T20:28:28.864Z,3.75
2018-02-16T20:30:56.566Z,4.30
2018-02-16T20:33:24.656Z,7.43
2018-02-16T20:35:52.557Z,8.68
2018-02-16T20:38:20.176Z,11.95
2018-02-16T20:40:47.854Z,7.80
2018-02-16T20:43:15.468Z,5.45
2018-02-16T20:45:43.085Z,4.43
2018-02-16T20:48:10.727Z,4.20
2018-02-16T20:50:38.382Z,4.18
2018-02-16T20:53:06.038Z,4.40
2018-02-16T20:55:33.687Z,4.97
2018-02-16T20:58:01.435Z,4.82
2018-02-16T21:00:29.113Z,5.03
2018-02-16T21:02:56.760Z,4.50
2018-02-16T21:05:24.487Z,5.90
2018-02-16T21:07:52.135Z,5.30
2018-02-16T21:10:19.737Z,5.00
2018-02-16T21:12:47.382Z,4.62
2018-02-16T21:15:15.030Z,4.78
2018-02-16T21:17:42.648Z,4.22
2018-02-16T21:20:10.374Z,3.83
2018-02-16T21:22:37.970Z,4.60
2018-02-16T21:25:05.603Z,3.95
2018-02-16T21:27:33.471Z,4.85
2018-02-16T21:30:01.082Z,4.25
2018-02-16T21:32:28.793Z,3.65
2018-02-16T21:34:56.478Z,4.37
2018-02-16T21:37:24.062Z,4.62
2018-02-16T21:39:51.735Z,5.28
2018-02-16T21:42:19.383Z,5.00
2018-02-16T21:44:47.049Z,4.70
2018-02-16T21:47:14.667Z,4.12
2018-02-16T21:49:42.328Z,5.60
2018-02-16T21:52:09.954Z,5.10
2018-02-16T21:54:37.577Z,4.05
2018-02-16T21:57:05.214Z,4.50
2018-02-16T21:59:32.830Z,4.57
2018-02-16T22:02:00.486Z,4.30
2018-02-16T22:04:28.661Z,5.35
2018-02-16T22:06:56.269Z,6.57
2018-02-16T22:09:24.308Z,4.60
2018-02-16T22:11:51.915Z,4.93
2018-02-16T22:14:19.557Z,5.45
2018-02-16T22:16:47.198Z,4.50
2018-02-16T22:19:14.782Z,4.20
2018-02-16T22:21:42.817Z,5.12
2018-02-16T22:24:10.424Z,4.00
2018-02-16T22:26:38.381Z,4.87
2018-02-16T22:29:06.357Z,5.55
2018-02-16T22:31:34.446Z,5.30
2018-02-16T22:34:02.532Z,7.28
2018-02-16T22:36:30.519Z,5.45
2018-02-16T22:38:58.644Z,4.82
2018-02-16T22:41:26.230Z,4.95
2018-02-16T22:43:53.844Z,4.55
2018-02-16T22:46:21.795Z,4.90
2018-02-16T22:48:49.449Z,5.75
2018-02-16T22:51:17.085Z,6.60
2018-02-16T22:53:44.682Z,5.62
2018-02-16T22:56:12.343Z,5.72
2018-02-16T22:58:39.991Z,4.93
2018-02-16T23:01:07.576Z,4.57
2018-02-16T23:03:35.214Z,5.20
2018-02-16T23:06:02.862Z,5.82
2018-02-16T23:08:32.124Z,4.50
2018-02-16T23:11:03.238Z,4.40
2018-02-16T23:13:30.842Z,5.47
2018-02-16T23:15:58.479Z,4.75
2018-02-16T23:18:26.147Z,4.80
2018-02-16T23:20:53.831Z,4.80
2018-02-16T23:23:21.506Z,7.10
2018-02-16T23:25:49.154Z,5.90
2018-02-16T23:28:16.765Z,6.97
2018-02-16T23:30:44.589Z,7.65
2018-02-16T23:33:13.756Z,6.87
2018-02-16T23:35:41.358Z,5.78
2018-02-16T23:38:09.046Z,6.40
2018-02-16T23:40:36.642Z,6.25
2018-02-16T23:43:04.193Z,7.15
2018-02-16T23:45:31.789Z,5.40
2018-02-16T23:47:59.394Z,5.93
2018-02-16T23:50:27.028Z,5.47
2018-02-16T23:52:54.694Z,5.40
2018-02-16T23:55:22.646Z,5.87
2018-02-16T23:57:50.264Z,5.93
